Time;durP1;ratioP1;P1;durP2;ratioP2;P2;SDS_P1;SDS_P2;PMS_P1;PMS_P2;Temp;Humidity;BMP_temperature;BMP_pressure;BME280_temperature;BME280_humidity;BME280_pressure;Samples;Min_cycle;Max_cycle;Signal;HPM_P1;HPM_P2
2023/01/12 00:01:49;;;;;;;1.85;1.30;;;;;;;3.54;73.67;99811.78;4950281;28;20058;-96
2023/01/12 00:04:21;;;;;;;4.70;1.63;;;;;;;3.53;74.06;99816.28;4950490;28;20038;-96
2023/01/12 00:07:04;;;;;;;2.25;1.63;;;;;;;3.58;73.83;99818.31;4951260;28;20030;-96
2023/01/12 00:09:35;;;;;;;2.25;1.58;;;;;;;3.61;73.79;99823.19;4953257;28;20058;-96
2023/01/12 00:12:11;;;;;;;2.33;1.80;;;;;;;3.50;75.24;99821.22;4950040;28;20027;-96
2023/01/12 00:14:45;;;;;;;2.13;1.60;;;;;;;3.57;74.75;99806.84;4951160;28;20789;-96
2023/01/12 00:17:15;;;;;;;3.05;1.80;;;;;;;3.57;76.19;99798.03;4951008;28;20026;-96
2023/01/12 00:19:41;;;;;;;5.00;2.30;;;;;;;3.56;73.90;99829.16;4952076;28;20099;-96
2023/01/12 00:22:13;;;;;;;2.75;1.90;;;;;;;3.73;73.67;99839.34;4950221;28;20038;-96
2023/01/12 00:24:51;;;;;;;2.42;1.65;;;;;;;3.43;75.65;99827.38;4951686;28;20033;-96
2023/01/12 00:30:41;;;;;;;2.10;1.60;;;;;;;3.40;73.32;99816.31;4999333;28;20096;-96
2023/01/12 00:33:12;;;;;;;2.53;1.70;;;;;;;3.50;72.04;99808.72;4953629;28;20469;-96
2023/01/12 00:35:47;;;;;;;2.47;1.40;;;;;;;3.48;73.71;99844.56;4977353;28;20090;-96
2023/01/12 00:38:15;;;;;;;2.13;1.45;;;;;;;3.30;75.27;99814.13;4972513;28;20045;-96
2023/01/12 00:40:44;;;;;;;1.65;1.35;;;;;;;3.37;73.47;99798.94;4953956;28;20026;-96
2023/01/12 00:45:58;;;;;;;1.80;1.40;;;;;;;3.42;73.34;99807.13;4977136;28;20153;-96
2023/01/12 00:48:24;;;;;;;2.72;1.50;;;;;;;3.47;73.70;99808.34;4955193;28;20084;-96
2023/01/12 00:50:50;;;;;;;3.22;1.60;;;;;;;3.53;73.36;99815.44;4954226;28;20469;-96
2023/01/12 00:53:17;;;;;;;2.22;1.65;;;;;;;3.64;74.00;99826.25;4954309;28;20065;-96
2023/01/12 00:55:49;;;;;;;2.25;1.52;;;;;;;3.73;74.12;99834.81;4971476;28;20078;-96
2023/01/12 00:58:21;;;;;;;2.10;1.50;;;;;;;3.67;74.11;99827.69;4955656;28;20582;-96
2023/01/12 01:00:51;;;;;;;3.50;2.10;;;;;;;3.61;73.82;99810.72;4954585;28;20018;-96
2023/01/12 01:03:27;;;;;;;2.95;1.90;;;;;;;3.61;73.73;99804.56;4970787;28;20050;-96
2023/01/12 01:06:08;;;;;;;1.95;1.60;;;;;;;3.57;73.99;99820.16;4957227;28;20030;-96
2023/01/12 01:08:40;;;;;;;2.53;2.25;;;;;;;3.68;74.01;99839.97;4954277;28;20413;-96
2023/01/12 01:11:08;;;;;;;4.53;2.05;;;;;;;3.49;74.18;99809.75;4954786;28;20037;-96
2023/01/12 01:13:43;;;;;;;3.38;2.00;;;;;;;3.50;74.12;99819.34;4953310;28;20085;-96
2023/01/12 01:16:13;;;;;;;4.40;1.70;;;;;;;3.45;74.05;99816.53;4970214;28;20038;-96
2023/01/12 01:18:41;;;;;;;2.83;1.75;;;;;;;3.40;74.16;99811.84;4953548;28;20034;-96
2023/01/12 01:21:10;;;;;;;2.58;1.73;;;;;;;3.49;74.18;99835.56;4952511;28;20022;-96
2023/01/12 01:23:36;;;;;;;2.28;1.50;;;;;;;3.38;74.19;99810.38;4953901;28;20124;-96
2023/01/12 01:26:07;;;;;;;1.85;1.48;;;;;;;3.28;74.08;99800.22;4954766;28;20496;-96
2023/01/12 01:28:35;;;;;;;3.03;1.98;;;;;;;3.29;73.46;99824.97;4954612;28;20034;-96
2023/01/12 01:31:19;;;;;;;2.38;1.80;;;;;;;3.15;75.42;99801.03;4953026;28;20037;-96
2023/01/12 01:33:45;;;;;;;2.38;1.95;;;;;;;3.22;73.84;99804.53;4969463;28;20030;-96
2023/01/12 01:36:13;;;;;;;4.00;2.35;;;;;;;3.28;74.35;99807.34;4953798;28;20037;-96
2023/01/12 01:38:45;;;;;;;4.25;2.35;;;;;;;3.11;74.10;99783.06;4953051;28;20030;-96
2023/01/12 01:41:34;;;;;;;3.58;2.22;;;;;;;2.90;76.35;99792.94;4952304;28;20564;-96
2023/01/12 01:44:07;;;;;;;2.58;1.65;;;;;;;3.13;76.58;99823.56;4984525;28;20042;-96
2023/01/12 01:46:40;;;;;;;3.78;2.47;;;;;;;3.20;74.74;99824.38;4955218;28;20062;-96
2023/01/12 01:49:32;;;;;;;3.78;2.08;;;;;;;2.98;75.05;99805.19;4970354;28;20038;-96
2023/01/12 01:52:19;;;;;;;3.10;2.22;;;;;;;3.12;76.74;99836.06;4971048;28;20034;-96
2023/01/12 01:54:51;;;;;;;3.55;2.13;;;;;;;3.18;75.03;99824.59;4955358;28;20031;-94
2023/01/12 01:57:16;;;;;;;3.40;2.40;;;;;;;3.22;74.93;99809.84;4949257;28;20030;-94
2023/01/12 01:59:45;;;;;;;2.92;2.25;;;;;;;3.31;74.45;99828.25;4948623;28;20039;-94
2023/01/12 02:02:11;;;;;;;2.58;2.10;;;;;;;3.24;74.11;99804.31;4948780;28;20055;-94
2023/01/12 02:04:36;;;;;;;3.78;1.98;;;;;;;3.18;74.68;99813.94;4949481;28;20053;-93
2023/01/12 02:07:02;;;;;;;3.42;1.73;;;;;;;2.81;75.25;99778.22;4964227;28;20026;-94
2023/01/12 02:09:29;;;;;;;2.38;1.63;;;;;;;3.11;76.14;99820.31;4948425;28;20049;-94
2023/01/12 02:17:51;;;;;;;2.35;1.73;;;;;;;3.08;76.70;99824.19;4969996;28;20041;-95
2023/01/12 02:20:47;;;;;;;2.65;1.90;;;;;;;3.03;77.17;99819.50;4985991;28;20121;-92
2023/01/12 02:23:40;;;;;;;1.95;1.73;;;;;;;3.04;76.50;99821.13;4948062;28;20490;-94
2023/01/12 02:26:32;;;;;;;1.90;1.50;;;;;;;3.21;74.13;99810.03;4984341;28;20041;-94
2023/01/12 02:29:19;;;;;;;2.65;1.70;;;;;;;3.26;73.78;99814.72;4967118;28;20026;-93
2023/01/12 02:31:57;;;;;;;1.50;1.23;;;;;;;3.30;73.32;99811.47;4979444;28;20129;-94
2023/01/12 02:34:28;;;;;;;1.50;1.25;;;;;;;3.01;73.87;99788.84;4963543;28;20162;-93
2023/01/12 02:37:09;;;;;;;2.42;1.52;;;;;;;3.19;73.72;99820.88;4964744;28;20420;-93
2023/01/12 02:39:58;;;;;;;1.70;1.30;;;;;;;3.16;73.58;99802.69;4980845;28;20037;-95
2023/01/12 02:42:40;;;;;;;1.48;1.30;;;;;;;2.91;74.40;99783.13;4965052;28;20129;-95
2023/01/12 02:45:35;;;;;;;1.97;1.67;;;;;;;3.16;75.35;99794.72;4947879;28;20045;-94
2023/01/12 02:48:18;;;;;;;2.17;1.48;;;;;;;3.17;74.07;99774.25;4981500;28;20030;-95
2023/01/12 02:50:49;;;;;;;1.73;1.35;;;;;;;3.18;73.77;99771.38;4979909;28;20081;-95
2023/01/12 02:53:28;;;;;;;2.25;1.50;;;;;;;3.25;74.23;99779.31;4964296;28;20120;-95
2023/01/12 02:55:54;;;;;;;2.10;1.42;;;;;;;3.18;74.31;99789.19;4986106;28;20029;-95
2023/01/12 02:58:20;;;;;;;2.67;1.55;;;;;;;3.24;74.56;99804.31;4973913;28;20026;-94
2023/01/12 03:00:47;;;;;;;1.65;1.30;;;;;;;3.22;75.09;99803.72;4963236;28;20033;-95
2023/01/12 03:03:14;;;;;;;1.83;1.42;;;;;;;3.24;74.25;99783.03;4973338;28;20054;-94
2023/01/12 03:05:40;;;;;;;1.75;1.20;;;;;;;3.43;74.20;99789.31;4953994;28;20038;-94
2023/01/12 03:08:06;;;;;;;2.17;1.40;;;;;;;3.39;73.15;99778.25;4979546;28;20034;-94
2023/01/12 03:10:43;;;;;;;11.63;4.25;;;;;;;3.45;73.00;99795.22;4966694;28;20505;-94
2023/01/12 03:13:13;;;;;;;2.70;1.77;;;;;;;3.30;73.48;99787.50;4978761;28;20041;-94
2023/01/12 03:15:42;;;;;;;7.00;3.10;;;;;;;3.34;71.98;99794.06;4960757;28;20112;-95
2023/01/12 03:18:13;;;;;;;2.95;2.03;;;;;;;3.27;72.17;99790.59;4964227;28;20057;-94
2023/01/12 03:20:42;;;;;;;2.33;1.65;;;;;;;3.15;72.85;99787.75;4964065;28;20046;-94
2023/01/12 03:23:19;;;;;;;2.63;1.67;;;;;;;3.23;73.70;99794.69;4956671;28;20390;-94
2023/01/12 03:25:45;;;;;;;2.30;1.50;;;;;;;3.16;74.85;99777.94;4960762;28;20125;-94
2023/01/12 03:28:12;;;;;;;3.90;2.03;;;;;;;3.21;74.94;99792.22;4950280;28;20480;-93
2023/01/12 03:30:44;;;;;;;3.05;2.40;;;;;;;3.24;73.88;99786.50;4964940;28;20030;-94
2023/01/12 03:33:10;;;;;;;3.33;2.03;;;;;;;3.26;75.53;99775.66;4947423;28;20420;-94
2023/01/12 03:35:49;;;;;;;3.60;2.08;;;;;;;3.19;76.07;99793.47;4947068;28;20026;-94
2023/01/12 03:38:27;;;;;;;3.17;2.10;;;;;;;3.19;75.61;99806.78;4952277;28;20116;-94
2023/01/12 03:41:05;;;;;;;3.22;1.95;;;;;;;2.96;75.97;99776.13;4955890;28;20500;-94
2023/01/12 03:43:37;;;;;;;2.72;1.90;;;;;;;3.13;75.78;99797.78;4952643;28;20073;-94
2023/01/12 03:46:21;;;;;;;2.90;2.15;;;;;;;3.04;73.27;99773.25;4960241;28;20124;-93
2023/01/12 03:49:08;;;;;;;3.42;2.20;;;;;;;3.21;72.81;99796.75;4966958;28;20486;-94
2023/01/12 03:51:37;;;;;;;4.88;1.75;;;;;;;3.13;72.53;99773.84;4997508;28;20065;-93
2023/01/12 03:54:03;;;;;;;4.90;2.25;;;;;;;3.22;72.12;99774.44;4965571;28;20450;-93
2023/01/12 03:56:30;;;;;;;4.05;2.20;;;;;;;3.17;72.90;99785.69;4981970;28;20037;-94
2023/01/12 03:58:56;;;;;;;3.25;1.83;;;;;;;3.06;74.39;99798.84;4966387;28;20121;-93
2023/01/12 04:01:22;;;;;;;4.60;1.95;;;;;;;2.78;75.29;99776.81;4981190;28;20527;-93
2023/01/12 04:03:48;;;;;;;2.40;1.70;;;;;;;3.01;74.79;99788.84;4998691;28;20028;-93
2023/01/12 04:06:13;;;;;;;4.30;1.60;;;;;;;3.17;74.07;99804.31;4965496;28;20029;-94
2023/01/12 04:08:45;;;;;;;3.67;2.05;;;;;;;3.09;74.33;99779.78;4982412;28;20030;-94
2023/01/12 04:14:33;;;;;;;3.03;1.95;;;;;;;2.94;76.18;99823.41;5013751;28;20076;-95
2023/01/12 04:17:06;;;;;;;2.58;1.58;;;;;;;2.88;75.62;99804.81;4979694;28;20019;-96
2023/01/12 04:19:41;;;;;;;2.38;1.80;;;;;;;2.89;75.67;99807.25;4965254;28;20038;-96
2023/01/12 04:22:45;;;;;;;2.30;1.80;;;;;;;3.11;75.97;99821.13;4966041;28;20034;-96
2023/01/12 04:25:19;;;;;;;4.65;2.40;;;;;;;2.93;75.89;99813.81;4969878;28;20034;-96
2023/01/12 04:27:54;;;;;;;2.78;2.25;;;;;;;2.94;75.74;99796.81;4961912;28;20034;-96
2023/01/12 04:30:26;;;;;;;2.33;1.80;;;;;;;3.03;74.99;99811.53;4963162;28;20034;-96
2023/01/12 04:32:51;;;;;;;3.93;2.50;;;;;;;2.97;75.78;99814.22;4964174;28;20445;-96
2023/01/12 04:35:36;;;;;;;2.95;2.25;;;;;;;2.98;75.13;99805.19;4966554;28;20033;-96
2023/01/12 04:38:11;;;;;;;2.55;2.03;;;;;;;2.73;75.68;99800.53;4966859;28;20040;-96
2023/01/12 04:40:48;;;;;;;2.97;2.35;;;;;;;2.76;77.08;99816.09;4966966;28;20042;-96
2023/01/12 04:43:20;;;;;;;3.50;2.40;;;;;;;2.59;77.46;99809.53;4971816;28;20572;-96
2023/01/12 04:45:46;;;;;;;3.25;2.60;;;;;;;2.46;77.42;99798.91;4968904;28;20034;-96
2023/01/12 04:48:18;;;;;;;3.03;2.20;;;;;;;2.52;77.87;99824.69;4981096;28;20044;-96
2023/01/12 04:50:57;;;;;;;4.63;2.10;;;;;;;2.54;77.59;99827.94;4998922;28;20117;-96
2023/01/12 04:53:23;;;;;;;2.67;2.25;;;;;;;2.38;77.25;99815.88;4980966;28;20030;-96
2023/01/12 04:55:52;;;;;;;4.70;2.65;;;;;;;2.47;77.63;99841.25;4993636;28;20029;-96
2023/01/12 04:58:29;;;;;;;3.67;2.70;;;;;;;2.48;77.56;99839.41;4994552;28;20034;-96
2023/01/12 05:01:15;;;;;;;6.75;4.93;;;;;;;2.32;77.55;99819.34;4979437;28;20033;-96
2023/01/12 05:03:44;;;;;;;4.70;3.00;;;;;;;2.15;78.69;99819.72;4998218;28;20053;-96
2023/01/12 05:06:15;;;;;;;6.22;3.13;;;;;;;2.20;78.87;99822.63;4980553;28;20029;-96
2023/01/12 05:12:13;;;;;;;9.15;3.03;;;;;;;2.33;78.38;99848.38;5029212;28;20041;-96
2023/01/12 05:15:00;;;;;;;4.03;2.72;;;;;;;2.18;79.06;99848.56;4995933;28;20065;-96
2023/01/12 05:17:27;;;;;;;6.13;3.30;;;;;;;2.42;78.18;99856.97;4979685;28;20377;-96
2023/01/12 05:19:53;;;;;;;6.93;3.03;;;;;;;2.56;77.44;99865.78;4979147;28;20045;-95
2023/01/12 05:22:18;;;;;;;4.35;2.83;;;;;;;2.48;77.47;99840.22;4968407;28;20026;-93
2023/01/12 05:24:46;;;;;;;3.75;2.90;;;;;;;2.69;76.85;99854.31;4984828;28;20034;-95
2023/01/12 05:27:11;;;;;;;4.00;2.70;;;;;;;2.75;76.60;99845.53;4969816;28;20087;-93
2023/01/12 05:29:37;;;;;;;3.75;2.58;;;;;;;2.85;75.48;99843.28;4968564;28;20030;-93
2023/01/12 05:32:03;;;;;;;5.22;3.78;;;;;;;2.79;75.86;99828.13;4968762;28;20492;-95
2023/01/12 05:34:28;;;;;;;7.22;6.05;;;;;;;2.73;75.72;99828.97;4968258;28;20022;-94
2023/01/12 05:36:54;;;;;;;6.25;4.00;;;;;;;2.75;76.14;99837.56;4984826;28;20053;-94
2023/01/12 05:39:22;;;;;;;5.43;3.65;;;;;;;2.79;75.76;99839.59;4986446;28;20033;-95
2023/01/12 05:44:31;;;;;;;7.05;3.90;;;;;;;2.98;74.57;99847.75;4989874;28;20427;-93
2023/01/12 05:46:58;;;;;;;7.63;4.72;;;;;;;3.07;74.94;99853.66;4970190;28;20026;-93
2023/01/12 05:49:31;;;;;;;8.02;5.10;;;;;;;3.16;75.16;99855.91;4969812;28;20053;-94
2023/01/12 05:52:01;;;;;;;23.63;18.70;;;;;;;2.98;75.33;99847.75;4985167;28;20034;-95
2023/01/12 05:54:29;;;;;;;17.95;11.73;;;;;;;2.87;76.06;99848.41;4986795;28;20109;-94
2023/01/12 05:57:11;;;;;;;10.82;5.25;;;;;;;2.78;74.49;99832.66;4979703;28;20046;-96
2023/01/12 06:00:03;;;;;;;8.10;4.93;;;;;;;2.91;74.80;99854.94;4978209;28;20050;-95
2023/01/12 06:02:35;;;;;;;;;;;;;;;2.87;74.95;99867.00;4989532;28;20082;-93
2023/01/12 06:05:09;;;;;;;7.80;4.45;;;;;;;2.60;74.80;99849.22;4972432;28;19918;-96
2023/01/12 06:07:38;;;;;;;5.72;3.78;;;;;;;2.33;75.82;99836.94;4976191;28;20686;-96
2023/01/12 06:10:19;;;;;;;5.68;3.90;;;;;;;2.29;76.16;99841.84;4983732;28;20014;-96
2023/01/12 06:16:05;;;;;;;6.65;4.43;;;;;;;2.32;76.29;99840.59;4997940;28;20095;-96
2023/01/12 06:18:57;;;;;;;6.55;4.20;;;;;;;2.48;76.32;99866.78;4990284;28;20049;-96
2023/01/12 06:21:37;;;;;;;6.72;4.57;;;;;;;2.42;76.17;99839.19;4986582;28;20021;-95
2023/01/12 06:24:20;;;;;;;6.50;4.47;;;;;;;2.51;75.94;99854.94;4984098;28;20026;-96
2023/01/12 06:27:24;;;;;;;4.72;3.40;;;;;;;2.73;75.63;99879.47;4999070;28;20080;-96
2023/01/12 06:29:59;;;;;;;8.75;4.93;;;;;;;2.63;75.70;99855.94;5001530;28;20034;-95
2023/01/12 06:32:37;;;;;;;9.02;4.32;;;;;;;2.52;74.80;99876.00;4976902;28;20033;-96
2023/01/12 06:35:08;;;;;;;8.77;5.30;;;;;;;2.48;75.28;99864.13;4979130;28;20038;-96
2023/01/12 06:37:34;;;;;;;7.93;4.67;;;;;;;2.46;75.34;99854.72;4962001;28;20465;-96
2023/01/12 06:40:00;;;;;;;8.73;5.95;;;;;;;2.59;75.55;99887.47;4967137;28;20277;-96
2023/01/12 06:42:29;;;;;;;8.45;4.82;;;;;;;2.45;75.99;99863.72;4970350;28;20030;-92
2023/01/12 06:45:03;;;;;;;8.63;5.22;;;;;;;2.53;75.42;99856.38;4987466;28;20083;-96
2023/01/12 06:47:45;;;;;;;6.07;4.70;;;;;;;2.50;75.44;99858.63;4967352;28;20034;-96
2023/01/12 06:50:15;;;;;;;8.93;4.82;;;;;;;2.76;74.90;99889.69;4961154;28;20026;-96
2023/01/12 06:53:01;;;;;;;7.85;4.53;;;;;;;2.56;75.64;99895.03;4962795;28;20534;-95
2023/01/12 06:55:27;;;;;;;8.50;4.82;;;;;;;2.53;75.74;99890.09;4962876;28;20029;-94
2023/01/12 06:58:08;;;;;;;6.93;4.55;;;;;;;2.52;75.68;99868.03;4953542;28;20029;-93
2023/01/12 07:00:34;;;;;;;6.53;4.20;;;;;;;2.62;74.65;99868.44;4989133;28;20038;-96
2023/01/12 07:03:05;;;;;;;8.10;5.13;;;;;;;2.83;74.78;99899.31;4961637;28;20285;-95
2023/01/12 07:05:30;;;;;;;10.13;5.25;;;;;;;2.75;74.75;99880.91;4976260;28;20026;-96
2023/01/12 07:07:58;;;;;;;9.85;6.22;;;;;;;2.76;74.75;99898.50;4972359;28;20064;-96
2023/01/12 07:10:24;;;;;;;10.10;5.30;;;;;;;2.54;74.76;99873.94;4971793;28;20403;-96
2023/01/12 07:12:53;;;;;;;10.55;6.28;;;;;;;2.53;75.47;99877.66;4960888;28;20042;-96
2023/01/12 07:15:19;;;;;;;12.38;8.00;;;;;;;2.77;75.08;99908.13;4968903;28;20026;-96
2023/01/12 07:17:44;;;;;;;11.18;6.32;;;;;;;2.74;74.47;99892.56;4971119;28;20121;-95
2023/01/12 07:20:13;;;;;;;7.65;4.82;;;;;;;2.61;74.37;99876.59;4967052;28;20389;-95
2023/01/12 07:22:38;;;;;;;7.80;4.65;;;;;;;2.72;75.02;99912.41;4974563;28;20030;-92
2023/01/12 07:30:20;;;;;;;9.35;5.22;;;;;;;2.34;76.06;99873.91;5307759;23;20058;-94
2023/01/12 07:32:46;;;;;;;9.60;6.00;;;;;;;2.49;75.50;99887.03;4953287;28;20112;-92
2023/01/12 07:35:12;;;;;;;11.25;6.13;;;;;;;2.64;75.42;99900.13;4960588;28;20533;-92
2023/01/12 07:37:37;;;;;;;11.05;7.63;;;;;;;2.61;74.42;99885.41;4949800;28;20139;-92
2023/01/12 07:40:12;;;;;;;15.45;9.52;;;;;;;2.74;74.82;99931.63;4961816;28;20042;-93
2023/01/12 07:42:37;;;;;;;25.55;19.25;;;;;;;2.65;74.77;99908.94;4959376;28;20043;-94
2023/01/12 07:45:03;;;;;;;19.05;10.18;;;;;;;2.77;74.39;99905.44;4961915;28;20033;-93
2023/01/12 07:47:29;;;;;;;13.80;8.93;;;;;;;2.82;74.53;99894.19;4947769;28;20121;-94
2023/01/12 07:49:55;;;;;;;23.02;12.77;;;;;;;2.66;74.08;99891.94;4927294;28;20065;-94
2023/01/12 07:52:20;;;;;;;19.90;10.50;;;;;;;2.68;74.11;99900.53;4960955;28;20047;-94
2023/01/12 07:54:48;;;;;;;12.32;8.45;;;;;;;2.66;74.98;99911.38;4961735;28;20022;-95
2023/01/12 07:57:14;;;;;;;18.55;10.13;;;;;;;2.68;74.27;99903.19;4958821;28;20031;-94
2023/01/12 07:59:43;;;;;;;14.20;9.60;;;;;;;2.83;73.59;99917.13;4960116;28;20544;-94
2023/01/12 08:02:15;;;;;;;12.93;8.15;;;;;;;2.81;73.57;99913.84;4943308;28;20042;-95
2023/01/12 08:04:42;;;;;;;19.08;12.60;;;;;;;2.94;73.41;99921.00;4930911;28;20082;-92
2023/01/12 08:07:07;;;;;;;14.10;8.55;;;;;;;2.82;73.60;99910.16;4962343;28;20053;-92
2023/01/12 08:09:36;;;;;;;15.18;8.55;;;;;;;3.06;73.58;99937.97;4947938;28;20030;-92
2023/01/12 08:12:01;;;;;;;14.48;8.75;;;;;;;2.93;73.03;99917.53;4951769;28;20034;-92
2023/01/12 08:14:35;;;;;;;17.40;8.50;;;;;;;2.89;73.33;99923.47;4946095;28;20084;-93
2023/01/12 08:17:01;;;;;;;16.85;8.95;;;;;;;2.94;74.52;99945.75;4960157;28;20456;-92
2023/01/12 08:19:30;;;;;;;17.40;8.50;;;;;;;3.03;74.23;99957.84;4984852;28;20038;-92
2023/01/12 08:22:02;;;;;;;18.08;9.38;;;;;;;2.84;74.08;99916.09;4948423;28;20030;-94
2023/01/12 08:24:33;;;;;;;13.20;8.35;;;;;;;3.07;73.80;99942.28;4979417;28;20089;-95
2023/01/12 08:27:02;;;;;;;24.57;12.70;;;;;;;3.13;73.61;99943.31;4994422;28;20149;-93
2023/01/12 08:29:42;;;;;;;14.63;8.98;;;;;;;3.04;73.40;99918.75;4967998;28;20284;-94
2023/01/12 08:32:08;;;;;;;24.05;14.93;;;;;;;3.07;73.37;99928.16;4966450;28;20046;-94
2023/01/12 08:34:33;;;;;;;18.33;9.50;;;;;;;3.23;74.35;99957.81;4973842;28;20046;-96
2023/01/12 08:37:04;;;;;;;15.30;10.15;;;;;;;3.24;72.98;99932.88;4968730;28;20058;-95
2023/01/12 08:39:43;;;;;;;41.72;22.83;;;;;;;3.27;73.85;99952.09;4987336;28;20030;-94
2023/01/12 08:42:09;;;;;;;106.97;49.42;;;;;;;3.11;73.38;99927.53;4953910;28;20070;-96
2023/01/12 08:44:41;;;;;;;23.73;14.32;;;;;;;3.33;74.01;99945.94;4952404;28;20452;-96
2023/01/12 08:47:16;;;;;;;188.13;69.75;;;;;;;3.04;73.75;99942.69;4942473;28;20043;-94
2023/01/12 08:49:44;;;;;;;21.02;12.50;;;;;;;3.27;73.19;99942.28;4962333;28;20045;-93
2023/01/12 08:52:10;;;;;;;45.63;24.40;;;;;;;3.16;73.67;99945.56;4931561;28;20437;-96
2023/01/12 08:54:47;;;;;;;13.93;9.20;;;;;;;3.07;73.51;99934.28;4952806;28;20066;-96
2023/01/12 08:57:15;;;;;;;13.82;8.27;;;;;;;3.39;73.55;99977.06;4917244;29;20070;-95
2023/01/12 08:59:46;;;;;;;10.77;7.53;;;;;;;3.20;73.93;99946.78;4906120;29;20044;-93
2023/01/12 09:02:12;;;;;;;16.75;11.55;;;;;;;3.23;73.10;99935.72;4902497;29;20064;-91
2023/01/12 09:04:39;;;;;;;16.15;11.00;;;;;;;2.97;73.54;99937.38;4901540;29;20489;-93
2023/01/12 09:07:27;;;;;;;15.43;8.90;;;;;;;3.32;73.91;99966.44;4905686;29;20052;-94
2023/01/12 09:09:52;;;;;;;18.60;10.10;;;;;;;3.20;74.05;99936.16;4918918;29;20565;-94
2023/01/12 09:12:21;;;;;;;17.67;9.85;;;;;;;3.40;73.40;99939.59;4906130;29;20045;-95
2023/01/12 09:14:48;;;;;;;19.02;10.73;;;;;;;3.48;73.02;99929.75;4907380;29;20035;-96
2023/01/12 09:17:13;;;;;;;21.70;11.57;;;;;;;3.67;73.37;99958.16;4904956;29;20051;-95
2023/01/12 09:19:48;;;;;;;20.85;12.65;;;;;;;3.31;73.41;99927.53;4905377;29;20033;-96
2023/01/12 09:22:14;;;;;;;16.95;11.13;;;;;;;3.34;73.22;99927.13;4938910;29;20046;-95
2023/01/12 09:24:56;;;;;;;21.08;12.05;;;;;;;3.43;73.48;99952.47;4928814;29;20039;-96
2023/01/12 09:27:22;;;;;;;24.00;11.30;;;;;;;2.97;74.86;99924.09;4948932;29;20043;-95
2023/01/12 09:29:50;;;;;;;17.40;10.52;;;;;;;3.20;74.81;99925.50;4946667;29;20048;-96
2023/01/12 09:32:17;;;;;;;20.20;11.73;;;;;;;3.34;74.09;99942.25;4925921;29;20091;-96
2023/01/12 09:34:43;;;;;;;28.65;12.65;;;;;;;3.34;74.16;99919.13;4926584;29;20024;-95
2023/01/12 09:37:26;;;;;;;21.45;13.73;;;;;;;3.56;73.75;99937.50;4954490;28;20029;-96
2023/01/12 09:40:03;;;;;;;40.67;30.25;;;;;;;3.29;74.36;99910.13;4960266;28;20106;-96
2023/01/12 09:47:55;;;;;;;20.05;11.85;;;;;;;3.74;73.46;99934.19;5016545;23;20053;-96
2023/01/12 09:50:36;;;;;;;20.05;11.88;;;;;;;3.73;73.30;99954.66;4965192;28;20009;-94
2023/01/12 09:53:33;;;;;;;19.48;11.77;;;;;;;3.38;74.19;99949.63;4969422;28;20053;-95
2023/01/12 09:56:31;;;;;;;15.20;10.20;;;;;;;3.53;74.02;99951.22;4975265;28;20040;-96
2023/01/12 09:58:59;;;;;;;17.25;10.18;;;;;;;3.42;74.12;99942.03;4980692;28;20022;-96
2023/01/12 10:01:25;;;;;;;14.20;8.88;;;;;;;3.29;73.81;99910.13;4989285;28;20532;-93
2023/01/12 10:03:53;;;;;;;16.70;10.75;;;;;;;3.63;73.48;99935.63;5003298;28;20022;-92
2023/01/12 10:06:22;;;;;;;16.02;10.10;;;;;;;3.63;72.84;99938.31;4971425;28;20038;-96
2023/01/12 10:09:03;;;;;;;27.92;16.27;;;;;;;3.39;72.30;99900.69;4953137;28;20045;-95
2023/01/12 10:12:04;;;;;;;18.33;11.77;;;;;;;3.48;73.55;99938.53;4953027;28;20496;-95
2023/01/12 10:14:45;;;;;;;17.13;9.13;;;;;;;3.65;73.00;99944.25;5009443;28;20044;-95
2023/01/12 10:17:47;;;;;;;15.27;8.48;;;;;;;3.47;73.46;99942.25;4972483;28;20015;-96
2023/01/12 10:20:20;;;;;;;;;;;;;;;3.33;73.84;99938.78;4989401;28;20026;-96
2023/01/12 10:22:55;;;;;;;;;;;;;;;3.32;74.43;99937.16;5001610;28;19913;-96
2023/01/12 10:26:05;;;;;;;11.95;7.68;;;;;;;3.20;74.70;99907.69;4993483;28;19914;-96
2023/01/12 10:28:32;;;;;;;22.92;11.48;;;;;;;3.14;74.63;99897.06;4986310;28;20041;-93
2023/01/12 10:31:01;;;;;;;27.10;15.38;;;;;;;3.36;74.29;99914.44;4951912;28;20031;-96
2023/01/12 10:33:36;;;;;;;34.50;20.20;;;;;;;3.53;73.59;99916.63;4945856;28;20046;-96
2023/01/12 10:36:31;;;;;;;29.48;17.73;;;;;;;3.62;73.04;99918.03;4956861;28;20026;-96
2023/01/12 10:39:02;;;;;;;29.75;17.33;;;;;;;3.66;73.55;99926.44;4965315;28;20050;-96
2023/01/12 10:43:17;;;;;;;28.95;17.23;;;;;;;3.58;73.66;99899.00;4935943;28;20018;-96
2023/01/12 10:45:15;;;;;;;33.50;16.40;;;;;;;3.37;72.54;99880.63;4958098;28;20046;-96
2023/01/12 10:48:41;;;;;;;26.65;16.48;;;;;;;3.33;73.31;99882.88;4959054;28;21653;-96
2023/01/12 10:51:20;;;;;;;22.92;13.95;;;;;;;3.30;73.95;99883.31;4948464;28;20030;-96
2023/01/12 10:53:51;;;;;;;26.17;13.15;;;;;;;3.41;73.53;99892.50;4957222;28;20038;-96
2023/01/12 10:56:46;;;;;;;25.02;14.05;;;;;;;3.45;72.56;99877.75;4968396;28;20069;-95
2023/01/12 10:59:34;;;;;;;57.20;18.27;;;;;;;3.53;74.33;99913.94;4949117;28;20054;-96
2023/01/12 11:04:55;;;;;;;18.08;10.65;;;;;;;3.06;75.60;99908.72;4931536;29;20035;-96
2023/01/12 11:07:50;;;;;;;15.57;10.65;;;;;;;3.03;75.58;99863.94;4985882;28;20033;-96
2023/01/12 11:15:34;;;;;;;15.82;10.27;;;;;;;3.52;74.66;99905.16;4948545;28;20059;-95
2023/01/12 11:18:21;;;;;;;23.42;14.35;;;;;;;3.78;73.10;99906.94;4928197;29;20505;-95
2023/01/12 11:21:15;;;;;;;21.38;12.90;;;;;;;3.69;73.77;99894.06;4940001;29;20044;-96
2023/01/12 11:24:08;;;;;;;38.90;20.00;;;;;;;3.85;74.19;99902.38;4940470;29;20039;-96
2023/01/12 11:26:53;;;;;;;21.33;12.70;;;;;;;3.97;73.25;99907.06;4936601;29;20043;-96
2023/01/12 11:30:14;;;;;;;21.58;13.65;;;;;;;3.81;73.23;99877.19;4935873;29;20059;-96
2023/01/12 11:32:58;;;;;;;21.90;13.48;;;;;;;4.02;72.51;99909.91;4915460;29;20040;-92
2023/01/12 11:35:40;;;;;;;24.90;15.32;;;;;;;4.05;71.54;99872.19;4914978;29;20032;-94
2023/01/12 11:38:14;;;;;;;28.83;16.15;;;;;;;4.28;73.00;99902.81;4924489;29;20036;-94
2023/01/12 11:40:46;;;;;;;23.60;14.80;;;;;;;4.17;72.88;99877.63;4902598;29;20054;-95
2023/01/12 11:46:35;;;;;;;23.10;14.07;;;;;;;4.51;71.06;99889.72;5131369;23;20136;-96
2023/01/12 11:50:19;;;;;;;24.67;13.73;;;;;;;4.48;70.93;99890.16;5012463;28;20026;-96
2023/01/12 11:53:06;;;;;;;6.95;4.95;;;;;;;4.38;68.87;99865.81;5023516;28;20040;-96
2023/01/12 11:55:40;;;;;;;36.88;19.25;;;;;;;4.58;69.27;99885.16;4967404;28;20030;-96
2023/01/12 11:58:26;;;;;;;31.08;18.10;;;;;;;4.44;70.58;99895.13;4990417;28;20033;-96
2023/01/12 12:01:24;;;;;;;37.25;18.50;;;;;;;4.32;69.30;99891.50;4986320;28;20041;-96
2023/01/12 12:07:04;;;;;;;6.07;4.05;;;;;;;4.28;69.02;99870.81;4986788;28;20041;-96
2023/01/12 12:10:04;;;;;;;4.95;3.38;;;;;;;4.16;67.82;99865.34;4981530;28;20038;-96
2023/01/12 12:13:14;;;;;;;3.35;2.35;;;;;;;4.17;67.73;99890.97;4969518;28;20046;-96
2023/01/12 12:16:06;;;;;;;3.83;2.65;;;;;;;3.96;70.12;99886.75;4969476;28;20038;-95
2023/01/12 12:18:50;;;;;;;4.68;3.08;;;;;;;3.98;69.99;99874.84;4968043;28;20038;-92
2023/01/12 12:21:32;;;;;;;5.25;3.08;;;;;;;4.12;69.52;99877.47;4968059;28;20412;-91
2023/01/12 12:24:37;;;;;;;4.13;3.00;;;;;;;4.18;68.85;99863.28;4948078;28;20142;-96
2023/01/12 12:27:09;;;;;;;6.38;4.13;;;;;;;4.42;69.78;99894.50;4964538;28;20046;-96
2023/01/12 12:29:34;;;;;;;13.60;6.75;;;;;;;4.42;68.23;99889.19;4947816;28;20099;-96
2023/01/12 12:32:53;;;;;;;11.77;6.10;;;;;;;4.39;69.57;99889.59;4966419;28;20069;-96
2023/01/12 12:36:23;;;;;;;6.63;4.20;;;;;;;4.18;67.53;99841.97;4983146;28;20049;-96
2023/01/12 12:39:26;;;;;;;8.77;5.40;;;;;;;4.31;67.25;99878.38;4954863;28;20027;-96
2023/01/12 12:45:53;;;;;;;5.15;2.97;;;;;;;4.31;69.92;99886.38;5020204;28;20057;-95
2023/01/12 12:53:54;;;;;;;4.55;3.20;;;;;;;3.98;70.77;99879.38;4982112;28;20050;-96
2023/01/12 12:57:08;;;;;;;7.35;3.45;;;;;;;4.08;71.09;99890.41;4951138;28;20038;-96
2023/01/12 13:00:15;;;;;;;3.00;2.17;;;;;;;4.04;70.67;99891.84;4956718;28;20045;-96
2023/01/12 13:03:07;;;;;;;4.32;3.10;;;;;;;3.54;71.74;99857.84;4929071;29;20079;-93
2023/01/12 13:05:54;;;;;;;4.32;3.15;;;;;;;3.94;70.70;99894.16;4951952;28;20082;-96
2023/01/12 13:08:54;;;;;;;6.13;3.95;;;;;;;3.88;71.16;99853.22;4939203;28;20034;-96
2023/01/12 13:19:36;;;;;;;6.07;4.18;;;;;;;4.32;68.50;99888.03;5241824;23;20117;-95
2023/01/12 13:22:55;;;;;;;7.35;3.35;;;;;;;4.22;71.53;99901.81;4935938;28;20102;-96
2023/01/12 13:25:29;;;;;;;6.25;4.00;;;;;;;4.20;69.67;99902.00;4965290;29;20024;-96